Main page
METAR-TAF:

METAR-TAF

Airports :

Farnborough Airport

Farnborough, England

latitude: 51-17N, longitude: 000-46W, elevation: 65 m

Current weather observation

The report was made 44 minutes ago, at 00:50 UTC
Wind 15 kt from the West/Southwest
Temperature 5°C
Humidity 75%
Pressure 1019 hPa
Visibility 10 km or more

METAR: EGLF 180050Z AUTO 24015KT 9999 NCD 05/01 Q1019

Time: 01:34 (01:34 UTC)

Forecast

The report was made 5 hours and 29 minutes ago, at 20:05 UTC
Forecast valid from 17 at 21 UTC to 17 at 23 UTC
Wind 14 kt from the West/Southwest
Visibility 10 km or more
Scattered clouds at a height of 2500 ft

TAF: EGLF 172005Z 1721/1723 24014KT 9999 SCT025

Weather observations and forecasts of more than 4000 airports (METAR and TAF reports).

The available stations are represented by yellow and red dots on the map.

Hover mouse over dot to see the name of the station.

Then click to see weather observations and forecasts.

To change the map : click on the green buttons with a black cross to zoom in, on the green button with a dash to zoom out, or on the green arrows for adjacent maps.


METAR-TAF: